YBBNYBCG

Guest
Details From YBBN - Brisbane Intl
To YBCG - Gold Coast International
Flight Number -
Tags Generated
Created
Modified
Stats Distance 50 nm / 92 km
Max Altitude 0 ft / 0 m
Waypoints 2
Social Downloads 0
Likes 0
Share VATSIM

Download

Looking for another format? Having issues loading an existing format? Contact us
Advertisement - Login to hide

Notes

Generated

Route

YBBN YBCG

ID Type Via Altitude Latitude Longitude Leg Dist Tot Dist Heading (true) Name
O YBBN APT - 0 ft / 0 m -27.40786˚ 153.10379˚ - 0 nm - -
O YBCG APT - 0 ft / 0 m -28.15621˚ 153.50016˚ 49 nm 49 nm 155° / 155° -

Altitude Profile

Advertisement - Login to hide

YBBN

Details ICAO YBBN (BNE)
Name Brisbane Intl
Region Australia
Timezone Australia/Brisbane (UTC+10.0)
Stats Elevation 12 ft / 4 m (AMSL)
Location -27.375714° 153.127710°
Runways 2
Magnetic Variation 10.987° E

METAR

YBBN 242200Z 21010KT CAVOK 12/08 Q1027 NOSIG

Decode

TAF

TAF YBBN 241714Z 2418/2524 21007KT 9999 -SHRA SCT030 SCT070 FM250300 12012KT 9999 -SHRA SCT030 SCT050 FM251000 17010KT 9999 -SHRA SCT030 BKN040 INTER 2514/2524 3000 SHRA BKN012

Decode

Departure Runways

ID Width Length Bearing (true) Bearing (mag) Surface Threshold Offset Overrun Length
01 148 ft / 45 m 11,805 ft / 3,598 m 26.93° 15.94° Asphalt 197 ft / 60 m 0 ft / 0 m
14 98 ft / 30 m 5,787 ft / 1,764 m 145.66° 134.67° Asphalt 197 ft / 60 m 0 ft / 0 m
19 148 ft / 45 m 11,805 ft / 3,598 m 206.92° 195.93° Asphalt 0 ft / 0 m 0 ft / 0 m
32 98 ft / 30 m 5,787 ft / 1,764 m 325.66° 314.67° Asphalt 197 ft / 60 m 0 ft / 0 m

YBCG

Details ICAO YBCG (OOL)
Name Gold Coast International
Region Australia
Timezone Australia/Brisbane (UTC+10.0)
Stats Elevation 20 ft / 6 m (AMSL)
Location -28.166035° 153.506155°
Runways 2
Magnetic Variation 11.334° E

METAR

YBCG 242200Z AUTO 22008KT 9999 // OVC062 16/10 Q1027 RF00.0/000.0

Decode

TAF

TAF YBCG 241717Z 2418/2518 20007KT 9999 -SHRA SCT025 SCT040 FM250200 15012KT 9999 -SHRA SCT030 BKN040 INTER 2508/2518 3000 SHRA BKN012

Decode

Destination Runways

ID Width Length Bearing (true) Bearing (mag) Surface Threshold Offset Overrun Length
14 148 ft / 45 m 7,687 ft / 2,343 m 150.04° 138.71° Asphalt 0 ft / 0 m 394 ft / 120 m
17 59 ft / 18 m 1,911 ft / 582 m 184.00° 172.67° Asphalt 0 ft / 0 m 0 ft / 0 m
32 148 ft / 45 m 7,687 ft / 2,343 m 330.04° 318.71° Asphalt 0 ft / 0 m 394 ft / 120 m
35 59 ft / 18 m 1,911 ft / 582 m 4.00° 352.67° Asphalt 0 ft / 0 m 0 ft / 0 m

Popular Alternatives